createdAt,value
2019-04-30T00:02:35.634Z,90.80
2019-04-30T00:05:39.245Z,90.96
2019-04-30T00:08:46.423Z,91.18
2019-04-30T00:11:57.960Z,91.01
2019-04-30T00:15:01.837Z,91.43
2019-04-30T00:18:09.578Z,91.48
2019-04-30T00:21:18.726Z,90.97
2019-04-30T00:24:25.823Z,90.96
2019-04-30T00:27:32.672Z,91.02
2019-04-30T00:30:43.991Z,90.71
2019-04-30T00:33:48.262Z,90.68
2019-04-30T00:36:56.124Z,90.58
2019-04-30T00:40:05.486Z,90.57
2019-04-30T00:43:12.268Z,90.29
2019-04-30T00:46:25.515Z,90.16
2019-04-30T00:49:28.227Z,90.04
2019-04-30T00:52:37.251Z,90.17
2019-04-30T00:55:48.367Z,90.23
2019-04-30T00:58:57.437Z,90.23
2019-04-30T01:02:10.489Z,89.89
2019-04-30T01:05:21.121Z,89.93
2019-04-30T01:08:28.744Z,90.29
2019-04-30T01:11:39.814Z,90.33
2019-04-30T01:14:47.285Z,90.39
2019-04-30T01:17:54.254Z,90.70
2019-04-30T01:21:02.968Z,90.58
2019-04-30T01:24:09.954Z,90.44
2019-04-30T01:27:18.709Z,90.42
2019-04-30T01:30:25.649Z,90.74
2019-04-30T01:33:34.695Z,90.53
2019-04-30T01:36:43.471Z,90.76
2019-04-30T01:39:51.753Z,90.27
2019-04-30T01:42:59.292Z,89.93
2019-04-30T01:46:12.148Z,90.07
2019-04-30T01:49:14.232Z,90.06
2019-04-30T01:52:21.243Z,89.36
2019-04-30T01:55:35.599Z,89.77
2019-04-30T01:58:49.471Z,89.15
2019-04-30T02:01:58.520Z,89.15
2019-04-30T02:05:08.813Z,88.96
2019-04-30T02:08:15.865Z,88.77
2019-04-30T02:11:22.685Z,88.67
2019-04-30T02:14:29.513Z,88.73
2019-04-30T02:17:36.374Z,88.51
2019-04-30T02:20:43.293Z,88.51
2019-04-30T02:23:50.270Z,88.06
2019-04-30T02:26:57.260Z,87.08
2019-04-30T02:30:05.353Z,87.53
2019-04-30T02:33:13.277Z,87.10
2019-04-30T02:36:24.315Z,86.76
2019-04-30T02:39:32.927Z,87.09
2019-04-30T02:42:39.970Z,86.98
2019-04-30T02:45:49.675Z,87.59
2019-04-30T02:48:56.279Z,86.46
2019-04-30T02:52:04.462Z,86.95
2019-04-30T02:55:16.269Z,87.07
2019-04-30T02:58:23.273Z,87.16
2019-04-30T03:01:30.637Z,87.13
2019-04-30T03:04:39.514Z,87.12
2019-04-30T03:07:53.028Z,85.92
2019-04-30T03:10:56.255Z,85.92
2019-04-30T03:14:03.540Z,86.97
2019-04-30T03:17:12.620Z,87.23
2019-04-30T03:20:35.128Z,87.44
2019-04-30T03:23:32.883Z,87.44
2019-04-30T03:26:40.276Z,87.42
2019-04-30T03:29:50.226Z,87.95
2019-04-30T03:32:57.231Z,87.66
2019-04-30T03:36:04.249Z,88.16
2019-04-30T03:39:11.451Z,87.94
2019-04-30T03:42:19.862Z,88.24
2019-04-30T03:45:30.028Z,88.24
2019-04-30T03:48:35.897Z,88.29
2019-04-30T03:51:42.786Z,89.14
2019-04-30T03:54:50.945Z,89.01
2019-04-30T03:58:00.167Z,88.58
2019-04-30T04:01:19.471Z,88.08
2019-04-30T04:04:33.812Z,88.08
2019-04-30T04:07:42.596Z,88.57
2019-04-30T04:11:03.036Z,87.85
2019-04-30T04:14:10.584Z,87.85
2019-04-30T04:17:20.243Z,88.80
2019-04-30T04:20:26.836Z,88.71
2019-04-30T04:23:33.871Z,88.71
2019-04-30T04:26:43.556Z,89.26
2019-04-30T04:29:51.220Z,90.14
2019-04-30T04:32:59.906Z,89.10
2019-04-30T04:36:09.185Z,89.10
2019-04-30T04:39:15.948Z,90.02
2019-04-30T04:42:22.724Z,89.82
2019-04-30T04:45:30.706Z,90.28
2019-04-30T04:48:39.462Z,90.61
2019-04-30T04:51:45.552Z,90.09
2019-04-30T04:54:52.328Z,90.55
2019-04-30T04:57:59.864Z,90.10
2019-04-30T05:01:08.685Z,89.99
2019-04-30T05:04:15.974Z,89.46
2019-04-30T05:07:25.576Z,89.62
2019-04-30T05:10:32.632Z,89.53
2019-04-30T05:13:39.630Z,89.53
2019-04-30T05:16:46.638Z,89.66
2019-04-30T05:19:53.713Z,89.35
2019-04-30T05:23:00.579Z,89.22
2019-04-30T05:26:08.451Z,88.26
2019-04-30T05:29:16.223Z,88.26
2019-04-30T05:32:23.948Z,87.72
2019-04-30T05:35:31.214Z,87.29
2019-04-30T05:38:39.168Z,86.84
2019-04-30T05:41:49.070Z,85.35
2019-04-30T05:44:55.236Z,85.35
2019-04-30T05:48:02.254Z,84.89
2019-04-30T05:51:09.294Z,82.23
2019-04-30T05:54:15.834Z,82.70
2019-04-30T05:57:22.514Z,80.98
2019-04-30T06:00:30.618Z,77.64
2019-04-30T06:03:38.591Z,77.64
2019-04-30T06:06:45.629Z,78.04
2019-04-30T06:10:06.635Z,73.65
2019-04-30T06:13:15.263Z,73.65
2019-04-30T06:16:23.747Z,73.55
2019-04-30T06:19:31.011Z,78.22
2019-04-30T06:22:38.649Z,74.71
2019-04-30T06:25:57.419Z,77.01
2019-04-30T06:28:54.608Z,73.35
2019-04-30T06:32:02.107Z,64.67
2019-04-30T06:35:09.262Z,64.67
2019-04-30T06:38:15.589Z,66.52
2019-04-30T06:41:21.529Z,59.83
2019-04-30T06:44:37.457Z,62.00
2019-04-30T06:47:39.054Z,60.28
2019-04-30T06:50:46.157Z,59.69
2019-04-30T06:53:53.205Z,60.78
2019-04-30T06:57:00.238Z,51.86
2019-04-30T07:00:09.857Z,53.02
2019-04-30T07:03:16.818Z,54.09
2019-04-30T07:06:29.798Z,55.01
2019-04-30T07:09:52.101Z,54.88
2019-04-30T07:12:49.750Z,55.54
2019-04-30T07:15:58.494Z,53.76
2019-04-30T07:19:05.599Z,55.95
2019-04-30T07:22:13.302Z,54.26
2019-04-30T07:25:20.236Z,54.26
2019-04-30T07:28:42.797Z,53.39
2019-04-30T07:31:36.646Z,52.63
2019-04-30T07:34:43.938Z,51.87
2019-04-30T07:37:54.558Z,51.87
2019-04-30T07:40:59.395Z,54.06
2019-04-30T07:44:05.657Z,54.06
2019-04-30T07:47:12.465Z,52.46
2019-04-30T07:50:21.511Z,52.46
2019-04-30T07:53:30.931Z,50.19
2019-04-30T07:56:41.546Z,49.65
2019-04-30T07:59:47.256Z,51.63
2019-04-30T08:02:59.847Z,49.76
2019-04-30T08:06:10.140Z,48.42
2019-04-30T08:09:16.016Z,48.58
2019-04-30T08:12:30.219Z,47.51
2019-04-30T08:15:33.855Z,49.70
2019-04-30T08:18:41.104Z,49.64
2019-04-30T08:21:48.630Z,50.19
2019-04-30T08:24:56.068Z,49.02
2019-04-30T08:28:03.293Z,47.58
2019-04-30T08:31:10.638Z,47.18
2019-04-30T08:34:20.092Z,44.51
2019-04-30T08:37:28.874Z,44.51
2019-04-30T08:40:39.259Z,44.05
2019-04-30T08:43:46.286Z,41.75
2019-04-30T08:46:53.480Z,45.04
2019-04-30T08:50:02.659Z,36.27
2019-04-30T08:53:10.930Z,38.62
2019-04-30T08:56:21.648Z,37.30
2019-04-30T08:59:26.267Z,38.05
2019-04-30T09:02:33.253Z,36.04
2019-04-30T09:05:40.461Z,38.34
2019-04-30T09:08:48.979Z,38.66
2019-04-30T09:11:59.121Z,37.72
2019-04-30T09:15:09.163Z,35.34
2019-04-30T09:18:16.278Z,36.61
2019-04-30T09:21:23.510Z,35.74
2019-04-30T09:24:31.152Z,32.68
2019-04-30T09:27:39.748Z,32.68
2019-04-30T09:30:48.446Z,31.85
2019-04-30T09:34:00.158Z,31.03
2019-04-30T09:37:06.405Z,30.36
2019-04-30T09:40:17.936Z,31.97
2019-04-30T09:43:21.282Z,31.44
2019-04-30T09:46:30.048Z,31.72
2019-04-30T09:49:38.828Z,31.66
2019-04-30T09:52:46.285Z,32.54
2019-04-30T09:55:53.433Z,30.64
2019-04-30T09:59:00.706Z,30.64
2019-04-30T10:02:09.298Z,27.38
2019-04-30T10:05:18.886Z,27.05
2019-04-30T10:08:30.697Z,26.56
2019-04-30T10:11:43.596Z,26.56
2019-04-30T10:14:50.936Z,29.79
2019-04-30T10:17:58.711Z,26.36
2019-04-30T10:21:06.273Z,28.09
2019-04-30T10:24:15.750Z,25.71
2019-04-30T10:27:23.290Z,26.58
2019-04-30T10:30:36.319Z,25.73
2019-04-30T10:33:42.552Z,26.48
2019-04-30T10:36:49.523Z,26.28
2019-04-30T10:39:56.537Z,25.93
2019-04-30T10:43:03.683Z,26.50
2019-04-30T10:46:10.799Z,26.50
2019-04-30T10:49:19.228Z,26.58
2019-04-30T10:52:26.526Z,26.84
2019-04-30T10:55:33.507Z,25.08
2019-04-30T10:58:40.443Z,25.08
2019-04-30T11:01:49.281Z,25.89
2019-04-30T11:04:56.716Z,25.87
2019-04-30T11:08:03.594Z,26.34
2019-04-30T11:11:10.558Z,25.58
2019-04-30T11:14:17.472Z,25.58
2019-04-30T11:17:24.485Z,27.64
2019-04-30T11:20:32.018Z,26.99
2019-04-30T11:23:39.650Z,27.15
2019-04-30T11:26:49.681Z,27.91
2019-04-30T11:30:01.497Z,26.60
2019-04-30T11:33:06.808Z,27.03
2019-04-30T11:36:14.044Z,28.00
2019-04-30T11:39:22.258Z,26.69
2019-04-30T11:42:32.276Z,27.39
2019-04-30T11:46:00.319Z,27.39
2019-04-30T11:49:07.320Z,26.17
2019-04-30T11:52:14.790Z,29.06
2019-04-30T11:55:22.079Z,26.29
2019-04-30T11:58:30.554Z,27.00
2019-04-30T12:01:37.934Z,26.60
2019-04-30T12:04:45.590Z,26.60
2019-04-30T12:07:55.254Z,26.92
2019-04-30T12:11:04.969Z,27.87
2019-04-30T12:14:11.774Z,27.22
2019-04-30T12:17:18.876Z,28.28
2019-04-30T12:20:25.945Z,29.14
2019-04-30T12:23:32.880Z,27.73
2019-04-30T12:26:40.259Z,26.50
2019-04-30T12:29:49.456Z,27.55
2019-04-30T12:32:56.309Z,28.36
2019-04-30T12:36:06.290Z,27.54
2019-04-30T12:39:12.244Z,27.24
2019-04-30T12:42:19.262Z,27.74
2019-04-30T12:45:26.383Z,26.61
2019-04-30T12:48:34.260Z,25.31
2019-04-30T12:51:45.851Z,23.06
2019-04-30T12:54:53.099Z,25.26
2019-04-30T12:58:01.910Z,24.58
2019-04-30T13:01:11.555Z,26.19
2019-04-30T13:04:19.392Z,25.26
2019-04-30T13:07:27.695Z,24.58
2019-04-30T13:10:36.190Z,24.58
2019-04-30T13:13:44.155Z,25.51
2019-04-30T13:16:51.539Z,24.96
2019-04-30T13:19:58.402Z,26.55
2019-04-30T13:23:08.721Z,26.55
2019-04-30T13:26:18.554Z,26.64
2019-04-30T13:29:30.265Z,24.95
2019-04-30T13:32:39.492Z,26.73
2019-04-30T13:35:46.459Z,26.70
2019-04-30T13:38:55.264Z,28.19
2019-04-30T13:42:15.089Z,28.19
2019-04-30T13:45:12.897Z,29.84
2019-04-30T13:48:19.848Z,30.02
2019-04-30T13:51:29.305Z,30.80
2019-04-30T13:54:38.347Z,30.70
2019-04-30T13:57:45.394Z,30.66
2019-04-30T14:00:54.003Z,30.96
2019-04-30T14:04:05.782Z,30.64
2019-04-30T14:07:13.257Z,30.65
2019-04-30T14:10:21.072Z,30.23
2019-04-30T14:13:28.315Z,30.58
2019-04-30T14:16:34.848Z,31.67
2019-04-30T14:19:41.720Z,30.67
2019-04-30T14:22:49.342Z,31.81
2019-04-30T14:25:57.004Z,32.82
2019-04-30T14:29:07.881Z,32.82
2019-04-30T14:32:18.491Z,32.02
2019-04-30T14:35:28.562Z,31.49
2019-04-30T14:38:40.500Z,31.14
2019-04-30T14:41:51.395Z,31.52
2019-04-30T14:45:02.207Z,32.35
2019-04-30T14:48:14.665Z,32.37
2019-04-30T14:51:23.286Z,33.68
2019-04-30T14:54:32.255Z,33.60
2019-04-30T14:57:56.673Z,34.52
2019-04-30T15:01:05.586Z,34.33
2019-04-30T15:04:12.409Z,33.64
2019-04-30T15:07:20.024Z,33.64
2019-04-30T15:10:26.579Z,33.92
2019-04-30T15:13:32.566Z,33.54
2019-04-30T15:16:38.560Z,32.07
2019-04-30T15:19:44.507Z,32.14
2019-04-30T15:22:52.296Z,31.21
2019-04-30T15:25:59.447Z,31.43
2019-04-30T15:29:11.865Z,32.57
2019-04-30T15:32:14.263Z,32.18
2019-04-30T15:35:21.229Z,32.48
2019-04-30T15:38:46.434Z,30.73
2019-04-30T15:41:53.770Z,30.08
2019-04-30T15:45:00.831Z,30.99
2019-04-30T15:48:08.580Z,32.62
2019-04-30T15:51:15.784Z,31.21
2019-04-30T15:54:23.268Z,30.59
2019-04-30T15:57:30.390Z,32.31
2019-04-30T16:00:36.608Z,32.16
2019-04-30T16:03:46.005Z,32.79
2019-04-30T16:06:52.968Z,32.54
2019-04-30T16:10:09.275Z,31.42
2019-04-30T16:13:19.464Z,32.16
2019-04-30T16:16:28.256Z,31.88
2019-04-30T16:19:36.248Z,33.44
2019-04-30T16:22:43.448Z,34.04
2019-04-30T16:25:50.634Z,35.69
2019-04-30T16:28:58.726Z,36.24
2019-04-30T16:32:09.282Z,36.17
2019-04-30T16:35:19.527Z,36.88
2019-04-30T16:38:28.832Z,35.97
2019-04-30T16:41:36.275Z,36.33
2019-04-30T16:44:44.747Z,36.33
2019-04-30T16:47:51.955Z,36.17
2019-04-30T16:50:59.053Z,36.29
2019-04-30T16:54:06.370Z,36.32
2019-04-30T16:57:12.635Z,37.34
2019-04-30T17:00:20.337Z,39.14
2019-04-30T17:03:31.329Z,39.21
2019-04-30T17:06:40.618Z,40.02
2019-04-30T17:09:50.973Z,40.41
2019-04-30T17:13:00.775Z,40.33
2019-04-30T17:16:11.305Z,40.54
2019-04-30T17:19:20.157Z,40.58
2019-04-30T17:22:29.232Z,42.45
2019-04-30T17:25:37.763Z,42.99
2019-04-30T17:28:45.680Z,44.56
2019-04-30T17:31:53.553Z,46.66
2019-04-30T17:35:01.031Z,47.14
2019-04-30T17:38:11.348Z,47.14
2019-04-30T17:41:23.278Z,49.25
2019-04-30T17:44:30.268Z,52.04
2019-04-30T17:47:38.994Z,51.81
2019-04-30T17:50:46.553Z,52.36
2019-04-30T17:54:11.523Z,54.91
2019-04-30T17:57:31.037Z,52.88
2019-04-30T18:00:31.716Z,50.56
2019-04-30T18:03:39.768Z,52.88
2019-04-30T18:06:50.640Z,55.47
2019-04-30T18:10:03.459Z,58.69
2019-04-30T18:13:13.083Z,55.02
2019-04-30T18:16:22.679Z,55.02
2019-04-30T18:19:33.920Z,58.09
2019-04-30T18:22:40.956Z,60.07
2019-04-30T18:25:59.318Z,61.25
2019-04-30T18:29:06.762Z,59.77
2019-04-30T18:32:14.625Z,59.77
2019-04-30T18:35:28.525Z,59.05
2019-04-30T18:38:40.283Z,61.07
2019-04-30T18:41:48.735Z,61.00
2019-04-30T18:44:59.932Z,60.73
2019-04-30T18:48:10.193Z,66.88
2019-04-30T18:51:32.887Z,66.74
2019-04-30T18:54:28.600Z,65.50
2019-04-30T18:57:35.275Z,65.50
2019-04-30T19:00:43.725Z,68.91
2019-04-30T19:03:51.345Z,67.13
2019-04-30T19:07:04.275Z,67.68
2019-04-30T19:10:19.323Z,68.18
2019-04-30T19:13:34.526Z,67.85
2019-04-30T19:16:53.441Z,67.85
2019-04-30T19:20:03.258Z,68.64
2019-04-30T19:23:11.430Z,69.93
2019-04-30T19:26:20.927Z,71.91
2019-04-30T19:29:28.517Z,69.82
2019-04-30T19:32:39.037Z,72.34
2019-04-30T19:35:50.317Z,69.91
2019-04-30T19:38:55.290Z,72.27
2019-04-30T19:42:05.312Z,70.34
2019-04-30T19:45:15.822Z,72.78
2019-04-30T19:48:24.964Z,70.79
2019-04-30T19:51:35.031Z,75.54
2019-04-30T19:54:42.545Z,74.36
2019-04-30T19:57:51.740Z,74.36
2019-04-30T20:01:00.866Z,73.44
2019-04-30T20:06:43.317Z,73.57
2019-04-30T20:10:00.194Z,72.27
2019-04-30T20:13:01.191Z,73.02
2019-04-30T20:16:11.962Z,72.82
2019-04-30T20:19:19.947Z,76.83
2019-04-30T20:22:29.039Z,75.86
2019-04-30T20:25:36.277Z,78.84
2019-04-30T20:28:43.345Z,78.04
2019-04-30T20:31:50.705Z,76.18
2019-04-30T20:34:59.721Z,78.02
2019-04-30T20:41:35.264Z,75.19
2019-04-30T20:44:42.568Z,76.79
2019-04-30T20:47:49.660Z,76.98
2019-04-30T20:50:57.276Z,76.98
2019-04-30T20:54:05.960Z,76.61
2019-04-30T20:57:16.416Z,77.51
2019-04-30T21:00:23.278Z,77.15
2019-04-30T21:03:30.895Z,78.77
2019-04-30T21:06:43.244Z,77.64
2019-04-30T21:09:50.847Z,78.20
2019-04-30T21:13:00.716Z,78.20
2019-04-30T21:16:08.375Z,78.00
2019-04-30T21:19:15.441Z,78.00
2019-04-30T21:22:22.984Z,78.39
2019-04-30T21:25:29.909Z,78.41
2019-04-30T21:28:39.213Z,78.31
2019-04-30T21:32:04.536Z,78.49
2019-04-30T21:35:24.293Z,80.17
2019-04-30T21:38:32.964Z,80.79
2019-04-30T21:41:40.608Z,80.79
2019-04-30T21:44:47.955Z,80.11
2019-04-30T21:47:56.507Z,80.11
2019-04-30T21:51:03.878Z,80.44
2019-04-30T21:54:12.504Z,80.44
2019-04-30T21:57:19.260Z,80.88
2019-04-30T22:00:41.694Z,80.60
2019-04-30T22:03:50.594Z,83.10
2019-04-30T22:06:59.515Z,81.82
2019-04-30T22:10:09.531Z,81.81
2019-04-30T22:13:18.526Z,81.16
2019-04-30T22:16:26.588Z,81.16
2019-04-30T22:19:36.714Z,80.33
2019-04-30T22:22:44.790Z,80.33
2019-04-30T22:25:52.310Z,80.63
2019-04-30T22:28:59.801Z,80.79
2019-04-30T22:32:06.636Z,80.79
2019-04-30T22:35:25.897Z,81.21
2019-04-30T22:38:42.317Z,84.85
2019-04-30T22:41:50.069Z,82.24
2019-04-30T22:44:57.254Z,81.38
2019-04-30T22:48:04.257Z,82.21
2019-04-30T22:51:11.548Z,81.46
2019-04-30T22:54:18.580Z,83.06
2019-04-30T22:57:25.466Z,81.52
2019-04-30T23:00:37.369Z,81.52
2019-04-30T23:03:43.541Z,81.13
2019-04-30T23:06:50.423Z,80.69
2019-04-30T23:09:57.354Z,81.58
2019-04-30T23:13:04.646Z,81.69
2019-04-30T23:16:11.608Z,82.52
2019-04-30T23:19:18.865Z,82.00
2019-04-30T23:22:25.669Z,82.24
2019-04-30T23:25:32.548Z,82.16
2019-04-30T23:28:40.133Z,83.09
2019-04-30T23:31:47.116Z,83.09
2019-04-30T23:34:54.048Z,85.19
2019-04-30T23:38:01.041Z,83.45
2019-04-30T23:41:08.253Z,82.74
2019-04-30T23:44:15.309Z,84.86
2019-04-30T23:47:22.429Z,83.40
2019-04-30T23:50:28.535Z,83.35
2019-04-30T23:53:35.278Z,84.02
2019-04-30T23:56:42.345Z,84.17
2019-04-30T23:59:49.265Z,84.04
